sensor_id;sensor_type;location;lat;lon;timestamp;pressure;altitude;pressure_sealevel;temperature;humidity
51530;BME280;37613;51.788;21.582;2023-07-31T00:01:37;99490.55;;;17.28;84.76
51530;BME280;37613;51.788;21.582;2023-07-31T00:05:40;99491.92;;;17.30;85.04
51530;BME280;37613;51.788;21.582;2023-07-31T00:09:42;99489.75;;;17.30;85.09
51530;BME280;37613;51.788;21.582;2023-07-31T00:13:44;99493.54;;;17.29;85.83
51530;BME280;37613;51.788;21.582;2023-07-31T00:17:46;99493.88;;;17.29;85.56
51530;BME280;37613;51.788;21.582;2023-07-31T00:21:49;99496.52;;;17.29;86.01
51530;BME280;37613;51.788;21.582;2023-07-31T00:25:51;99499.58;;;17.28;85.59
51530;BME280;37613;51.788;21.582;2023-07-31T00:35:10;99497.06;;;17.21;86.12
51530;BME280;37613;51.788;21.582;2023-07-31T00:39:11;99497.07;;;17.18;86.15
51530;BME280;37613;51.788;21.582;2023-07-31T00:43:13;99499.05;;;17.16;86.27
51530;BME280;37613;51.788;21.582;2023-07-31T00:47:15;99504.61;;;17.13;86.40
51530;BME280;37613;51.788;21.582;2023-07-31T00:51:17;99503.27;;;17.13;86.54
51530;BME280;37613;51.788;21.582;2023-07-31T00:55:20;99502.73;;;17.16;86.77
51530;BME280;37613;51.788;21.582;2023-07-31T00:59:23;99504.20;;;17.19;86.76
51530;BME280;37613;51.788;21.582;2023-07-31T01:03:25;99507.84;;;17.21;87.07
51530;BME280;37613;51.788;21.582;2023-07-31T01:07:52;99507.29;;;17.20;87.26
51530;BME280;37613;51.788;21.582;2023-07-31T01:12:02;99501.95;;;17.22;87.26
51530;BME280;37613;51.788;21.582;2023-07-31T01:16:04;99497.84;;;17.21;87.09
51530;BME280;37613;51.788;21.582;2023-07-31T01:20:17;99494.11;;;17.18;87.35
51530;BME280;37613;51.788;21.582;2023-07-31T01:32:38;99496.06;;;17.09;87.30
51530;BME280;37613;51.788;21.582;2023-07-31T01:36:42;99494.48;;;17.04;87.27
51530;BME280;37613;51.788;21.582;2023-07-31T01:40:44;99496.17;;;16.97;87.28
51530;BME280;37613;51.788;21.582;2023-07-31T01:44:46;99499.02;;;16.90;87.36
51530;BME280;37613;51.788;21.582;2023-07-31T01:48:48;99502.97;;;16.82;87.23
51530;BME280;37613;51.788;21.582;2023-07-31T01:52:50;99506.55;;;16.74;87.36
51530;BME280;37613;51.788;21.582;2023-07-31T01:56:52;99504.72;;;16.66;87.52
51530;BME280;37613;51.788;21.582;2023-07-31T02:00:54;99499.08;;;16.59;87.53
51530;BME280;37613;51.788;21.582;2023-07-31T02:04:56;99505.14;;;16.52;87.63
51530;BME280;37613;51.788;21.582;2023-07-31T02:08:58;99507.00;;;16.42;87.97
51530;BME280;37613;51.788;21.582;2023-07-31T02:13:00;99508.45;;;16.37;88.26
51530;BME280;37613;51.788;21.582;2023-07-31T02:17:02;99506.46;;;16.37;88.54
51530;BME280;37613;51.788;21.582;2023-07-31T02:21:04;99508.64;;;16.36;88.70
51530;BME280;37613;51.788;21.582;2023-07-31T02:25:07;99508.20;;;16.37;88.75
51530;BME280;37613;51.788;21.582;2023-07-31T02:29:09;99509.02;;;16.41;88.80
51530;BME280;37613;51.788;21.582;2023-07-31T02:33:11;99510.71;;;16.48;88.86
51530;BME280;37613;51.788;21.582;2023-07-31T02:37:13;99514.07;;;16.52;88.97
51530;BME280;37613;51.788;21.582;2023-07-31T02:41:15;99516.69;;;16.55;89.00
51530;BME280;37613;51.788;21.582;2023-07-31T02:45:17;99515.30;;;16.56;89.00
51530;BME280;37613;51.788;21.582;2023-07-31T02:49:19;99512.06;;;16.53;88.97
51530;BME280;37613;51.788;21.582;2023-07-31T02:53:21;99511.52;;;16.48;88.93
51530;BME280;37613;51.788;21.582;2023-07-31T02:57:24;99512.39;;;16.45;88.99
51530;BME280;37613;51.788;21.582;2023-07-31T03:01:26;99518.64;;;16.42;89.03
51530;BME280;37613;51.788;21.582;2023-07-31T03:05:28;99526.89;;;16.36;88.89
51530;BME280;37613;51.788;21.582;2023-07-31T03:09:30;99535.77;;;16.28;89.02
51530;BME280;37613;51.788;21.582;2023-07-31T03:13:32;99542.83;;;16.20;89.16
51530;BME280;37613;51.788;21.582;2023-07-31T03:17:34;99546.22;;;16.16;89.44
51530;BME280;37613;51.788;21.582;2023-07-31T03:21:36;99550.63;;;16.15;89.74
51530;BME280;37613;51.788;21.582;2023-07-31T03:25:38;99549.21;;;16.17;90.15
51530;BME280;37613;51.788;21.582;2023-07-31T03:29:40;99548.14;;;16.19;90.29
51530;BME280;37613;51.788;21.582;2023-07-31T03:33:42;99544.09;;;16.23;90.25
51530;BME280;37613;51.788;21.582;2023-07-31T03:37:43;99544.80;;;16.28;90.23
51530;BME280;37613;51.788;21.582;2023-07-31T03:41:46;99554.16;;;16.30;90.27
51530;BME280;37613;51.788;21.582;2023-07-31T03:45:48;99553.79;;;16.31;90.21
51530;BME280;37613;51.788;21.582;2023-07-31T03:49:50;99558.19;;;16.37;90.55
51530;BME280;37613;51.788;21.582;2023-07-31T03:53:52;99554.12;;;16.47;91.11
51530;BME280;37613;51.788;21.582;2023-07-31T03:57:54;99554.57;;;16.55;91.33
51530;BME280;37613;51.788;21.582;2023-07-31T04:01:56;99559.80;;;16.66;91.22
51530;BME280;37613;51.788;21.582;2023-07-31T04:05:58;99561.07;;;16.79;91.39
51530;BME280;37613;51.788;21.582;2023-07-31T04:10:00;99569.33;;;16.92;91.33
51530;BME280;37613;51.788;21.582;2023-07-31T04:14:02;99573.51;;;17.00;92.02
51530;BME280;37613;51.788;21.582;2023-07-31T04:18:06;99574.90;;;17.06;91.86
51530;BME280;37613;51.788;21.582;2023-07-31T04:22:08;99570.55;;;17.13;91.76
51530;BME280;37613;51.788;21.582;2023-07-31T04:26:10;99567.27;;;17.22;91.69
51530;BME280;37613;51.788;21.582;2023-07-31T04:30:12;99569.27;;;17.34;91.80
51530;BME280;37613;51.788;21.582;2023-07-31T04:34:14;99567.17;;;17.54;92.09
51530;BME280;37613;51.788;21.582;2023-07-31T04:38:16;99563.55;;;17.80;92.34
51530;BME280;37613;51.788;21.582;2023-07-31T04:42:18;99561.77;;;18.00;92.04
51530;BME280;37613;51.788;21.582;2023-07-31T04:46:20;99565.56;;;18.07;91.64
51530;BME280;37613;51.788;21.582;2023-07-31T04:55:03;99568.52;;;18.00;91.26
51530;BME280;37613;51.788;21.582;2023-07-31T04:59:06;99571.02;;;17.97;91.40
51530;BME280;37613;51.788;21.582;2023-07-31T05:03:07;99575.17;;;17.95;91.42
51530;BME280;37613;51.788;21.582;2023-07-31T05:07:10;99580.09;;;17.92;91.40
51530;BME280;37613;51.788;21.582;2023-07-31T05:11:12;99581.36;;;17.91;91.29
51530;BME280;37613;51.788;21.582;2023-07-31T05:15:14;99581.15;;;17.96;91.48
51530;BME280;37613;51.788;21.582;2023-07-31T05:19:16;99580.81;;;18.04;91.91
51530;BME280;37613;51.788;21.582;2023-07-31T05:23:18;99586.19;;;18.15;91.93
51530;BME280;37613;51.788;21.582;2023-07-31T05:27:20;99595.25;;;18.48;91.88
51530;BME280;37613;51.788;21.582;2023-07-31T05:31:22;99597.70;;;18.70;91.15
51530;BME280;37613;51.788;21.582;2023-07-31T05:35:24;99601.52;;;18.74;90.63
51530;BME280;37613;51.788;21.582;2023-07-31T05:39:26;99600.17;;;18.76;90.34
51530;BME280;37613;51.788;21.582;2023-07-31T05:43:28;99601.98;;;18.80;90.31
51530;BME280;37613;51.788;21.582;2023-07-31T05:47:30;99609.92;;;18.85;90.18
51530;BME280;37613;51.788;21.582;2023-07-31T05:51:33;99614.22;;;18.93;89.29
51530;BME280;37613;51.788;21.582;2023-07-31T05:55:34;99619.19;;;18.97;88.62
51530;BME280;37613;51.788;21.582;2023-07-31T05:59:37;99620.78;;;18.95;87.89
51530;BME280;37613;51.788;21.582;2023-07-31T06:03:39;99626.52;;;18.92;87.93
51530;BME280;37613;51.788;21.582;2023-07-31T06:07:40;99628.48;;;18.91;87.39
51530;BME280;37613;51.788;21.582;2023-07-31T06:11:43;99628.83;;;18.92;87.67
51530;BME280;37613;51.788;21.582;2023-07-31T06:15:45;99630.93;;;18.98;87.76
51530;BME280;37613;51.788;21.582;2023-07-31T06:19:47;99629.27;;;18.98;86.88
51530;BME280;37613;51.788;21.582;2023-07-31T06:23:49;99633.17;;;18.97;86.78
51530;BME280;37613;51.788;21.582;2023-07-31T06:27:51;99632.65;;;18.98;86.99
51530;BME280;37613;51.788;21.582;2023-07-31T06:31:52;99634.47;;;19.05;86.94
51530;BME280;37613;51.788;21.582;2023-07-31T06:35:54;99639.04;;;19.15;86.91
51530;BME280;37613;51.788;21.582;2023-07-31T06:39:56;99638.87;;;19.25;86.34
51530;BME280;37613;51.788;21.582;2023-07-31T06:43:58;99637.66;;;19.28;85.90
51530;BME280;37613;51.788;21.582;2023-07-31T06:48:01;99643.44;;;19.39;85.25
51530;BME280;37613;51.788;21.582;2023-07-31T06:52:04;99649.73;;;19.56;85.52
51530;BME280;37613;51.788;21.582;2023-07-31T06:56:05;99654.21;;;19.84;84.75
51530;BME280;37613;51.788;21.582;2023-07-31T07:00:08;99657.56;;;20.08;83.82
51530;BME280;37613;51.788;21.582;2023-07-31T07:04:10;99654.25;;;20.44;83.76
51530;BME280;37613;51.788;21.582;2023-07-31T07:08:12;99646.64;;;20.90;81.51
51530;BME280;37613;51.788;21.582;2023-07-31T07:12:14;99644.14;;;21.43;79.25
51530;BME280;37613;51.788;21.582;2023-07-31T07:16:17;99641.39;;;21.99;79.20
51530;BME280;37613;51.788;21.582;2023-07-31T07:20:18;99644.91;;;22.48;77.53
51530;BME280;37613;51.788;21.582;2023-07-31T07:24:21;99640.36;;;22.97;75.89
51530;BME280;37613;51.788;21.582;2023-07-31T07:28:24;99643.27;;;23.31;73.81
51530;BME280;37613;51.788;21.582;2023-07-31T07:32:25;99639.67;;;23.63;75.97
51530;BME280;37613;51.788;21.582;2023-07-31T07:36:28;99639.15;;;24.14;75.24
51530;BME280;37613;51.788;21.582;2023-07-31T07:40:30;99640.33;;;24.42;72.27
51530;BME280;37613;51.788;21.582;2023-07-31T07:44:32;99640.81;;;24.53;68.17
51530;BME280;37613;51.788;21.582;2023-07-31T07:48:34;99637.25;;;24.50;65.44
51530;BME280;37613;51.788;21.582;2023-07-31T07:52:37;99637.50;;;24.47;66.26
51530;BME280;37613;51.788;21.582;2023-07-31T07:56:39;99640.61;;;24.37;65.02
51530;BME280;37613;51.788;21.582;2023-07-31T08:00:40;99634.31;;;24.20;66.10
51530;BME280;37613;51.788;21.582;2023-07-31T08:04:42;99638.14;;;24.17;64.64
51530;BME280;37613;51.788;21.582;2023-07-31T08:08:44;99645.34;;;23.98;63.49
51530;BME280;37613;51.788;21.582;2023-07-31T08:12:46;99648.02;;;23.87;65.39
51530;BME280;37613;51.788;21.582;2023-07-31T08:16:48;99645.77;;;23.89;65.20
51530;BME280;37613;51.788;21.582;2023-07-31T08:20:50;99647.35;;;23.91;64.93
51530;BME280;37613;51.788;21.582;2023-07-31T08:24:51;99652.35;;;24.08;64.48
51530;BME280;37613;51.788;21.582;2023-07-31T08:28:53;99654.75;;;24.32;65.27
51530;BME280;37613;51.788;21.582;2023-07-31T08:32:56;99657.44;;;24.21;63.29
51530;BME280;37613;51.788;21.582;2023-07-31T08:36:58;99657.83;;;23.72;61.99
51530;BME280;37613;51.788;21.582;2023-07-31T08:40:59;99659.04;;;23.35;62.68
51530;BME280;37613;51.788;21.582;2023-07-31T08:45:03;99663.86;;;23.19;63.49
51530;BME280;37613;51.788;21.582;2023-07-31T08:49:05;99668.44;;;23.17;63.69
51530;BME280;37613;51.788;21.582;2023-07-31T08:53:09;99673.06;;;23.13;63.70
51530;BME280;37613;51.788;21.582;2023-07-31T08:57:11;99663.90;;;23.10;64.09
51530;BME280;37613;51.788;21.582;2023-07-31T09:01:15;99658.23;;;22.95;64.45
51530;BME280;37613;51.788;21.582;2023-07-31T09:05:18;99656.45;;;22.96;65.01
51530;BME280;37613;51.788;21.582;2023-07-31T09:09:21;99655.66;;;23.16;65.10
51530;BME280;37613;51.788;21.582;2023-07-31T09:13:22;99657.95;;;23.24;64.96
51530;BME280;37613;51.788;21.582;2023-07-31T09:17:35;99659.21;;;23.54;65.00
51530;BME280;37613;51.788;21.582;2023-07-31T09:21:49;99660.90;;;23.93;64.58
51530;BME280;37613;51.788;21.582;2023-07-31T09:25:51;99656.27;;;24.23;62.27
51530;BME280;37613;51.788;21.582;2023-07-31T09:29:59;99658.98;;;24.29;61.16
51530;BME280;37613;51.788;21.582;2023-07-31T09:34:01;99661.00;;;24.36;61.03
51530;BME280;37613;51.788;21.582;2023-07-31T09:38:05;99660.64;;;24.35;60.41
51530;BME280;37613;51.788;21.582;2023-07-31T09:42:07;99660.11;;;24.32;60.97
51530;BME280;37613;51.788;21.582;2023-07-31T09:46:13;99658.34;;;24.30;59.87
51530;BME280;37613;51.788;21.582;2023-07-31T09:50:15;99660.45;;;24.12;59.14
51530;BME280;37613;51.788;21.582;2023-07-31T09:54:17;99660.36;;;24.19;59.99
51530;BME280;37613;51.788;21.582;2023-07-31T09:58:21;99659.04;;;24.34;60.04
51530;BME280;37613;51.788;21.582;2023-07-31T10:02:24;99652.98;;;24.43;60.73
51530;BME280;37613;51.788;21.582;2023-07-31T10:06:28;99648.09;;;24.58;59.13
51530;BME280;37613;51.788;21.582;2023-07-31T10:10:31;99651.15;;;24.55;58.76
51530;BME280;37613;51.788;21.582;2023-07-31T10:14:33;99646.95;;;24.59;58.87
51530;BME280;37613;51.788;21.582;2023-07-31T10:18:36;99644.34;;;24.68;58.96
51530;BME280;37613;51.788;21.582;2023-07-31T10:22:39;99638.52;;;24.77;58.44
51530;BME280;37613;51.788;21.582;2023-07-31T10:26:45;99640.96;;;24.82;57.18
51530;BME280;37613;51.788;21.582;2023-07-31T10:30:49;99640.75;;;24.92;55.84
51530;BME280;37613;51.788;21.582;2023-07-31T10:34:52;99639.35;;;25.12;55.70
51530;BME280;37613;51.788;21.582;2023-07-31T10:38:56;99644.05;;;25.19;53.67
51530;BME280;37613;51.788;21.582;2023-07-31T10:48:16;99634.31;;;24.90;53.94
51530;BME280;37613;51.788;21.582;2023-07-31T10:52:21;99636.17;;;24.92;54.07
51530;BME280;37613;51.788;21.582;2023-07-31T10:56:25;99632.90;;;25.07;53.50
51530;BME280;37613;51.788;21.582;2023-07-31T11:00:28;99625.91;;;25.26;53.79
51530;BME280;37613;51.788;21.582;2023-07-31T11:04:31;99621.06;;;25.51;53.24
51530;BME280;37613;51.788;21.582;2023-07-31T11:08:41;99628.85;;;25.29;51.36
51530;BME280;37613;51.788;21.582;2023-07-31T11:12:45;99624.34;;;25.18;52.94
51530;BME280;37613;51.788;21.582;2023-07-31T11:16:50;99620.73;;;25.38;52.06
51530;BME280;37613;51.788;21.582;2023-07-31T11:20:54;99617.18;;;25.64;52.53
51530;BME280;37613;51.788;21.582;2023-07-31T11:24:56;99616.02;;;25.83;51.64
51530;BME280;37613;51.788;21.582;2023-07-31T11:28:58;99616.79;;;25.91;50.22
51530;BME280;37613;51.788;21.582;2023-07-31T11:33:04;99616.38;;;25.89;50.67
51530;BME280;37613;51.788;21.582;2023-07-31T11:37:07;99618.02;;;26.05;51.05
51530;BME280;37613;51.788;21.582;2023-07-31T11:41:09;99608.27;;;26.17;50.45
51530;BME280;37613;51.788;21.582;2023-07-31T11:45:11;99606.19;;;26.24;49.65
51530;BME280;37613;51.788;21.582;2023-07-31T11:49:12;99602.13;;;26.15;49.13
51530;BME280;37613;51.788;21.582;2023-07-31T11:53:15;99596.73;;;26.07;48.72
51530;BME280;37613;51.788;21.582;2023-07-31T11:57:19;99591.30;;;25.90;47.78
51530;BME280;37613;51.788;21.582;2023-07-31T12:01:22;99596.70;;;25.79;47.69
51530;BME280;37613;51.788;21.582;2023-07-31T12:05:25;99594.85;;;25.72;47.68
51530;BME280;37613;51.788;21.582;2023-07-31T12:09:29;99599.77;;;25.61;47.36
51530;BME280;37613;51.788;21.582;2023-07-31T12:13:32;99598.45;;;25.45;47.80
51530;BME280;37613;51.788;21.582;2023-07-31T12:17:35;99591.73;;;25.53;48.43
51530;BME280;37613;51.788;21.582;2023-07-31T12:21:38;99589.39;;;25.37;47.80
51530;BME280;37613;51.788;21.582;2023-07-31T12:25:39;99584.89;;;25.20;47.26
51530;BME280;37613;51.788;21.582;2023-07-31T12:29:42;99579.09;;;25.06;47.58
51530;BME280;37613;51.788;21.582;2023-07-31T12:33:49;99571.17;;;24.94;47.69
51530;BME280;37613;51.788;21.582;2023-07-31T12:37:51;99572.09;;;25.03;47.39
51530;BME280;37613;51.788;21.582;2023-07-31T12:41:53;99565.28;;;25.16;46.67
51530;BME280;37613;51.788;21.582;2023-07-31T12:45:55;99561.11;;;25.18;46.25
51530;BME280;37613;51.788;21.582;2023-07-31T12:49:58;99557.20;;;25.03;46.52
51530;BME280;37613;51.788;21.582;2023-07-31T12:54:00;99554.44;;;24.90;46.56
51530;BME280;37613;51.788;21.582;2023-07-31T12:58:03;99554.23;;;24.84;45.88
51530;BME280;37613;51.788;21.582;2023-07-31T13:02:05;99551.48;;;24.81;45.61
51530;BME280;37613;51.788;21.582;2023-07-31T13:06:07;99547.69;;;24.83;45.90
51530;BME280;37613;51.788;21.582;2023-07-31T13:10:09;99543.52;;;24.81;45.58
51530;BME280;37613;51.788;21.582;2023-07-31T13:14:11;99541.98;;;24.80;45.52
51530;BME280;37613;51.788;21.582;2023-07-31T13:18:14;99540.92;;;24.73;45.19
51530;BME280;37613;51.788;21.582;2023-07-31T13:22:15;99536.19;;;24.70;45.72
51530;BME280;37613;51.788;21.582;2023-07-31T13:26:17;99533.67;;;24.73;45.74
51530;BME280;37613;51.788;21.582;2023-07-31T13:30:19;99528.64;;;24.75;46.25
51530;BME280;37613;51.788;21.582;2023-07-31T13:34:21;99525.52;;;24.78;46.06
51530;BME280;37613;51.788;21.582;2023-07-31T13:38:23;99527.20;;;24.72;45.49
51530;BME280;37613;51.788;21.582;2023-07-31T13:42:26;99529.53;;;24.64;45.92
51530;BME280;37613;51.788;21.582;2023-07-31T13:46:30;99527.35;;;24.70;45.97
51530;BME280;37613;51.788;21.582;2023-07-31T13:50:34;99521.90;;;24.91;46.03
51530;BME280;37613;51.788;21.582;2023-07-31T13:54:35;99520.11;;;25.21;46.00
51530;BME280;37613;51.788;21.582;2023-07-31T13:58:37;99527.73;;;25.26;45.18
51530;BME280;37613;51.788;21.582;2023-07-31T14:02:39;99526.19;;;25.27;45.34
51530;BME280;37613;51.788;21.582;2023-07-31T14:06:41;99520.98;;;25.19;44.56
51530;BME280;37613;51.788;21.582;2023-07-31T14:10:43;99518.05;;;25.11;44.34
51530;BME280;37613;51.788;21.582;2023-07-31T14:14:45;99517.13;;;25.21;44.33
51530;BME280;37613;51.788;21.582;2023-07-31T14:18:47;99517.40;;;25.36;44.45
51530;BME280;37613;51.788;21.582;2023-07-31T14:22:49;99517.45;;;25.32;44.01
51530;BME280;37613;51.788;21.582;2023-07-31T14:26:51;99513.69;;;25.15;44.55
51530;BME280;37613;51.788;21.582;2023-07-31T14:30:53;99511.97;;;24.91;44.21
51530;BME280;37613;51.788;21.582;2023-07-31T14:34:55;99508.31;;;24.68;44.61
51530;BME280;37613;51.788;21.582;2023-07-31T14:38:57;99508.30;;;24.60;44.96
51530;BME280;37613;51.788;21.582;2023-07-31T14:43:00;99510.21;;;24.53;45.13
51530;BME280;37613;51.788;21.582;2023-07-31T14:47:02;99505.23;;;24.54;45.80
51530;BME280;37613;51.788;21.582;2023-07-31T14:51:03;99502.22;;;24.59;45.67
51530;BME280;37613;51.788;21.582;2023-07-31T14:55:06;99504.40;;;24.62;44.93
51530;BME280;37613;51.788;21.582;2023-07-31T14:59:08;99500.16;;;24.56;44.23
51530;BME280;37613;51.788;21.582;2023-07-31T15:03:11;99498.53;;;24.62;45.26
51530;BME280;37613;51.788;21.582;2023-07-31T15:07:13;99494.70;;;24.67;44.84
51530;BME280;37613;51.788;21.582;2023-07-31T15:11:15;99496.02;;;24.61;44.74
51530;BME280;37613;51.788;21.582;2023-07-31T15:15:17;99491.48;;;24.62;44.78
51530;BME280;37613;51.788;21.582;2023-07-31T15:19:19;99490.77;;;24.60;44.82
51530;BME280;37613;51.788;21.582;2023-07-31T15:23:21;99484.70;;;24.63;44.73
51530;BME280;37613;51.788;21.582;2023-07-31T15:27:24;99483.08;;;24.67;44.88
51530;BME280;37613;51.788;21.582;2023-07-31T15:31:26;99480.35;;;24.67;44.70
51530;BME280;37613;51.788;21.582;2023-07-31T15:35:28;99473.14;;;24.64;44.51
51530;BME280;37613;51.788;21.582;2023-07-31T15:39:30;99470.34;;;24.52;43.47
51530;BME280;37613;51.788;21.582;2023-07-31T15:43:32;99474.48;;;24.48;43.50
51530;BME280;37613;51.788;21.582;2023-07-31T15:47:35;99471.81;;;24.46;43.66
51530;BME280;37613;51.788;21.582;2023-07-31T15:51:36;99467.13;;;24.42;43.31
51530;BME280;37613;51.788;21.582;2023-07-31T15:55:38;99465.20;;;24.29;43.21
51530;BME280;37613;51.788;21.582;2023-07-31T15:59:40;99461.05;;;24.09;43.18
51530;BME280;37613;51.788;21.582;2023-07-31T16:03:42;99462.34;;;23.98;44.02
51530;BME280;37613;51.788;21.582;2023-07-31T16:07:44;99462.36;;;23.85;44.10
51530;BME280;37613;51.788;21.582;2023-07-31T16:11:46;99459.11;;;23.71;44.32
51530;BME280;37613;51.788;21.582;2023-07-31T16:15:48;99456.70;;;23.59;44.63
51530;BME280;37613;51.788;21.582;2023-07-31T16:19:50;99451.11;;;23.48;45.05
51530;BME280;37613;51.788;21.582;2023-07-31T16:23:52;99448.66;;;23.42;45.36
51530;BME280;37613;51.788;21.582;2023-07-31T16:27:54;99450.80;;;23.40;45.75
51530;BME280;37613;51.788;21.582;2023-07-31T16:31:56;99453.48;;;23.41;46.02
51530;BME280;37613;51.788;21.582;2023-07-31T16:35:58;99449.90;;;23.43;46.43
51530;BME280;37613;51.788;21.582;2023-07-31T16:40:00;99449.09;;;23.49;46.57
51530;BME280;37613;51.788;21.582;2023-07-31T16:44:02;99447.42;;;23.56;46.72
51530;BME280;37613;51.788;21.582;2023-07-31T16:48:04;99446.46;;;23.61;46.85
51530;BME280;37613;51.788;21.582;2023-07-31T16:52:06;99446.30;;;23.67;47.03
51530;BME280;37613;51.788;21.582;2023-07-31T16:56:08;99447.70;;;23.72;47.28
51530;BME280;37613;51.788;21.582;2023-07-31T17:00:10;99451.42;;;23.75;47.45
51530;BME280;37613;51.788;21.582;2023-07-31T17:04:13;99450.05;;;23.79;47.58
51530;BME280;37613;51.788;21.582;2023-07-31T18:35:58;99486.88;;;22.27;52.56
51530;BME280;37613;51.788;21.582;2023-07-31T18:50:14;99495.20;;;22.10;53.93
51530;BME280;37613;51.788;21.582;2023-07-31T19:13:11;99505.54;;;21.64;55.00
51530;BME280;37613;51.788;21.582;2023-07-31T19:17:14;99510.10;;;21.46;55.23
51530;BME280;37613;51.788;21.582;2023-07-31T19:34:23;99505.86;;;20.77;56.00
51530;BME280;37613;51.788;21.582;2023-07-31T19:39:25;99510.33;;;20.62;56.28
51530;BME280;37613;51.788;21.582;2023-07-31T19:44:01;99510.68;;;20.47;56.74
51530;BME280;37613;51.788;21.582;2023-07-31T19:48:11;99511.91;;;20.30;56.88
51530;BME280;37613;51.788;21.582;2023-07-31T19:52:32;99513.09;;;20.17;57.04
51530;BME280;37613;51.788;21.582;2023-07-31T19:56:48;99512.99;;;20.02;57.43
51530;BME280;37613;51.788;21.582;2023-07-31T20:01:36;99515.36;;;19.90;57.65
51530;BME280;37613;51.788;21.582;2023-07-31T20:06:15;99514.70;;;19.76;57.89
51530;BME280;37613;51.788;21.582;2023-07-31T20:10:49;99514.70;;;19.59;58.14
51530;BME280;37613;51.788;21.582;2023-07-31T20:15:19;99516.05;;;19.44;58.63
51530;BME280;37613;51.788;21.582;2023-07-31T20:20:06;99522.73;;;19.28;59.10
51530;BME280;37613;51.788;21.582;2023-07-31T20:24:36;99525.38;;;19.12;59.45
51530;BME280;37613;51.788;21.582;2023-07-31T20:29:27;99515.55;;;18.94;59.89
51530;BME280;37613;51.788;21.582;2023-07-31T20:34:36;99512.95;;;18.75;60.17
51530;BME280;37613;51.788;21.582;2023-07-31T20:39:19;99508.73;;;18.59;60.56
51530;BME280;37613;51.788;21.582;2023-07-31T20:44:23;99500.14;;;18.44;60.96
51530;BME280;37613;51.788;21.582;2023-07-31T21:02:39;99474.04;;;17.88;62.36
51530;BME280;37613;51.788;21.582;2023-07-31T21:07:25;99469.05;;;17.81;62.68
51530;BME280;37613;51.788;21.582;2023-07-31T21:11:52;99469.26;;;17.71;62.97
51530;BME280;37613;51.788;21.582;2023-07-31T21:16:15;99463.96;;;17.60;63.21
51530;BME280;37613;51.788;21.582;2023-07-31T21:20:23;99461.50;;;17.47;63.52
51530;BME280;37613;51.788;21.582;2023-07-31T21:24:35;99451.29;;;17.35;63.73
51530;BME280;37613;51.788;21.582;2023-07-31T21:28:46;99446.23;;;17.21;63.92
51530;BME280;37613;51.788;21.582;2023-07-31T21:32:57;99446.86;;;17.11;64.41
51530;BME280;37613;51.788;21.582;2023-07-31T21:37:06;99449.90;;;17.03;64.67
51530;BME280;37613;51.788;21.582;2023-07-31T21:41:34;99443.48;;;16.93;64.99
51530;BME280;37613;51.788;21.582;2023-07-31T22:13:18;99426.16;;;16.50;67.07
51530;BME280;37613;51.788;21.582;2023-07-31T22:18:29;99424.40;;;16.44;67.44
51530;BME280;37613;51.788;21.582;2023-07-31T22:32:06;99397.91;;;16.20;68.45
51530;BME280;37613;51.788;21.582;2023-07-31T22:46:07;99402.77;;;16.05;69.07
51530;BME280;37613;51.788;21.582;2023-07-31T22:50:34;99400.73;;;16.03;69.29
51530;BME280;37613;51.788;21.582;2023-07-31T22:55:42;99395.59;;;16.00;69.30
51530;BME280;37613;51.788;21.582;2023-07-31T23:10:03;99389.84;;;15.89;70.05
51530;BME280;37613;51.788;21.582;2023-07-31T23:28:21;99376.11;;;15.73;70.97
51530;BME280;37613;51.788;21.582;2023-07-31T23:32:38;99376.08;;;15.69;71.30
51530;BME280;37613;51.788;21.582;2023-07-31T23:37:03;99376.17;;;15.67;71.48
51530;BME280;37613;51.788;21.582;2023-07-31T23:41:15;99379.19;;;15.62;71.66
51530;BME280;37613;51.788;21.582;2023-07-31T23:45:28;99375.23;;;15.58;71.87
51530;BME280;37613;51.788;21.582;2023-07-31T23:49:51;99374.35;;;15.56;72.10
51530;BME280;37613;51.788;21.582;2023-07-31T23:54:05;99373.73;;;15.53;72.27
51530;BME280;37613;51.788;21.582;2023-07-31T23:58:15;99376.91;;;15.51;72.56
